Welcome to our Virtual Airline
Sign-in:

Flight MFC3791

  • Submitted By: Danny Rice
  • Departure Airport: Port Williams SPB (KPR)
  • Arrival Airport: Kulik Lake (LKK)
  • Aircraft: BELL 407 (N020MM)
  • Flight Time: 01.10.28
  • Date Submitted: 2018/11/19
  • Route: STOP-OVER AT OPTIONAL: (MCNEIL RIVER CAMP (MCN) (WATER) (THIS SPOT IS UN-MARKED BUT IT IS IN MCNEIL COVE)
  • Status: Accepted
Flight Details
Gross Revenue:
(5 load / $ 95.00 per unit
$ 475.00
Fuel Cost:
(73.0284 fuel used @ 5.1 / unit)
$ 372.44

Additional Log Information:

View Log

FS[08:27] ----- Flight Opened -----
FS[08:27] Cigar Box - 1.1.4.0
FS[08:27] FS: Prepar3D V4
FS[08:27] FSUIPC: v5.141
FS[08:27] Flight Number: MFC3791
FS[08:27] FS Aircraft: Bell 407 N020MM
FS[08:27] FS Model: B407
FS[08:27] FS Type: Bell
FS[08:27] Departure: KPR
FS[08:27] Arrival: LKK
FS[08:27] Flight Level: 6500
FS[08:27] Flight Type: H
FS[08:27] Passengers: 5
FS[08:27] FOB: 787 lbs
FS[08:27] Gate: n/a
FS[08:27] NOTE: Parking Brake Ignored
FS[08:27] Crash Detection: Disabled
FS[08:27] Engines: 1 Helo
FS[08:27] NOTE: Boarding has started
FS[08:27] Engine 1: Started
FS[08:27] Light Data: Beacon ON
FS[08:27] Light Data: Landing lights ON
FS[08:27] Main Door Closed
FS[08:27] COM1: 128.25
FS[08:27] COM2: 127.80
FS[08:27] Transponder: 1200
FS[08:27] NAV1: 117.20
FS[08:27] NAV2: 110.60
FS[08:27] ADF1: 284.0
FS[08:27] ADF2: 240.0
FS[08:27] Navigation Mode: NAV
FS[08:39] Light Data: Navigation ON
FS[08:40] Light Data: Landing lights OFF
FS[08:40] NOTE: Taxi started
FS[08:40] NOTE: ----- TAKE OFF -----
FS[08:40] GS: 31 knots
FS[08:40] TAS: 30 knots
FS[08:40] IAS: 30 knots
FS[08:40] VS: 213 fpm
FS[08:40] FOB: 760 lbs
FS[08:40] Heading: 26°
FS[08:40] Pitch: 12°
FS[08:40] Bank: 5°
FS[08:40] Aircraft Weight: 3597.94 lbs
FS[08:40] Nearest Airport: KPR
FS[08:40] Distance: 1.66 miles
FS[08:40] Runway: ???
FS[08:40] Ground Surface: Water
FS[08:40] Ground Condition: Normal
FS[08:40] NOTE: Weather Report
FS[08:40] Wind Heading: 341°
FS[08:40] Wind Speed: 0 knots
FS[08:40] OAT: 18° C
FS[08:40] TAT: 19° C
FS[08:40] Precipitation: None
FS[08:40] Dew Point: 11° C
FS[08:40] Visibility: 62 miles
FS[08:40] METAR: KPRB 191553Z AUTO 00000KT 4SM HZ CLR 04/01 A3007 RMK AO2 SLP183 T00390006KPRC 191553Z 00000KT 8SM CLR 04/M07 A3025 RMK AO2 SLP223 T00391072KPRG 191615Z AUTO 34004KT 5SM BR OVC006 02/01 A3010 RMK AO2 T00230010KPRN 191256Z AUTO 00000KT 9SM CLR 06/04 A3017 RMK AO2 SLP218 T00610039 PNOKPRO 191515Z AUTO 30004KT 10SM CLR M03/M05 A3005 RMK AO2 T10351055KPRS 191615Z AUTO 22003KT 10SM CLR 11/03 A3023 RMK AO2 T01070033KPRX 191556Z AUTO 28003KT 10SM CLR 05/00 A3027 RMK AO2 SLP268 T00500000
FS[08:40] NOTE: Climb started
FS[08:41] View Mode: Virtual Cockpit
FS[08:41] Navigation Mode: GPS
FS[08:41] Autopilot: Engaged
FS[08:41] AGL: 249 ft
FS[08:41] AMSL: 249 ft
FS[09:04] FS: Paused
FS[09:04] FS: Unpaused
FS[09:16] Autopilot: Disengaged
FS[09:16] AGL: 1984 ft
FS[09:16] AMSL: 1984 ft
FS[09:19] NOTE: ----- LANDED -----
FS[09:19] Landing Rate: -76.13 fpm
FS[09:19] GS: 0 knots
FS[09:19] TAS: 1 knots
FS[09:19] IAS: 1 knots
FS[09:19] VS: -70 fpm
FS[09:19] FOB: 670 lbs
FS[09:19] Heading: 236°
FS[09:19] Pitch: 0°
FS[09:19] Bank: 0°
FS[09:19] Aircraft Weight: 3508.13 lbs
FS[09:19] Nearest Airport: LKK
FS[09:19] Distance: 28.28 miles
FS[09:19] Runway: ???
FS[09:19] Ground Surface: Water
FS[09:19] Ground Condition: Snow
FS[09:19] NOTE: Weather Report
FS[09:19] Wind Heading: 341°
FS[09:19] Wind Speed: 0 knots
FS[09:19] OAT: 18° C
FS[09:19] TAT: 19° C
FS[09:19] Precipitation: None
FS[09:19] Dew Point: 11° C
FS[09:19] Visibility: 62 miles
FS[09:19] METAR: LKKB 191600Z 06010KT 040V100 CAVOK 00/M04 Q1017 NOSIGLKKU 191600Z 36009KT CAVOK 01/M02 Q1017LKKV 191600Z 08011KT 9999 SCT020 M01/M04 Q1014 R29///////
FS[09:19] View Mode: Virtual Cockpit
FS[09:19] NOTE: Taxi started
FS[09:19] Autopilot: Engaged
FS[09:19] AGL: 6 ft
FS[09:19] AMSL: 6 ft
FS[09:20] Autopilot: Disengaged
FS[09:20] AGL: 6 ft
FS[09:20] AMSL: 6 ft
FS[09:20] Autopilot: Engaged
FS[09:20] AGL: 95 ft
FS[09:20] AMSL: 95 ft
FS[09:20] View Mode: Virtual Cockpit
FS[09:37] Autopilot: Disengaged
FS[09:37] AGL: 603 ft
FS[09:37] AMSL: 1259 ft
FS[09:38] NOTE: ----- LANDED -----
FS[09:38] Landing Rate: -53.83 fpm
FS[09:38] GS: 0 knots
FS[09:38] TAS: 0 knots
FS[09:38] IAS: 0 knots
FS[09:38] VS: -51 fpm
FS[09:38] FOB: 626 lbs
FS[09:38] Heading: 237°
FS[09:38] Pitch: 1°
FS[09:38] Bank: 0°
FS[09:38] Aircraft Weight: 3464.83 lbs
FS[09:38] Nearest Airport: LKK
FS[09:38] Distance: 0.05 miles
FS[09:38] Runway: 24 - LKK
FS[09:38] Ground Surface: Concrete
FS[09:38] Ground Condition: Snow
FS[09:38] NOTE: Weather Report
FS[09:38] Wind Heading: 342°
FS[09:38] Wind Speed: 0 knots
FS[09:38] OAT: 17° C
FS[09:38] TAT: 17° C
FS[09:38] Precipitation: None
FS[09:38] Dew Point: 10° C
FS[09:38] Visibility: 62 miles
FS[09:38] METAR: LKKB 191600Z 06010KT 040V100 CAVOK 00/M04 Q1017 NOSIGLKKU 191600Z 36009KT CAVOK 01/M02 Q1017LKKV 191600Z 08011KT 9999 SCT020 M01/M04 Q1014 R29///////
FS[09:38] View Mode: Virtual Cockpit
FS[09:38] Gate: 3 - LKK
FS[09:38] NOTE: Flight Completed
FS[09:38] FS Aircraft: Bell 407 N020MM
FS[09:38] FS Model: B407
FS[09:38] FS Type: Bell
FS[09:38] FOB: 626 lbs
FS[09:38] Fuel Used: 161 lbs
FS[09:38] Flight Time: 01:10:28
FS[09:38] Flight Time (Dawn): 00:16:37
FS[09:38] Flight Time (Day): 00:53:51
FS[09:38] Flight Time (Dusk): 00:00:00
FS[09:38] Flight Time (Night): 00:00:00
FS[09:38] Total Landings: 2
FS[09:38] MaxSim Rate: 0x
FS[09:38] Cigar Box - 1.1.4.0
FS[09:38] ----- Flight Closed -----

Route Map